Colin Jacob — ZCTC3 — position and weather

sailwx.info

Track history (hours):
 
Tides and Currents Weather Stations Pressure Air Temp Water Temp Dewpoint Dewpoint Depression Visibility Wind Speed Wind Dir Waves Ship Positions

Colin Jacob

Last reported at 2018-Jun-05 04:00 UTC. Time now 2018-Jun-21 09:56 UTC.
Position N 28°36' W 093°31'.
Warning: this ship's position is 16 days out of date.

Length 228 m; draft 12.1 m.

Type: Tanker. MMSI: 319767000.

Date/timePositionNaut miles runAvg speedWind from/ knotsBaromVisibWave heightAir tempDewpointWater temp
2018-Jun-05 04:00N 28°36' W 093°31'612.7
2018-Jun-05 03:31N 28°40' W 093°37'712.9
2018-Jun-05 02:56N 28°44' W 093°44'712.7
2018-Jun-05 02:25N 28°48' W 093°50'512.8
2018-Jun-05 01:59N 28°50' W 093°56'1313.6
2018-Jun-05 01:00N 28°53' W 094°11'714.0
2018-Jun-05 00:30N 28°55' W 094°19'910.3
2018-Jun-04 23:39N 29°01' W 094°25'213.3
2018-Jun-04 23:30N 29°03' W 094°25'712.5
2018-Jun-04 22:58N 29°09' W 094°28'613.2
2018-Jun-04 22:29N 29°14' W 094°33'611.2
2018-Jun-04 21:55N 29°19' W 094°38'613.1
2018-Jun-04 21:30N 29°21' W 094°44'510.9
2018-Jun-04 21:00N 29°24' W 094°49'610.9
2018-Jun-04 20:30N 29°29' W 094°51'510.4
2018-Jun-04 20:00N 29°33' W 094°55'510.3
2018-Jun-04 19:30N 29°37' W 094°58'4 8.0
2018-Jun-04 18:59N 29°41' W 094°59'10 1.8
2018-Jun-04 13:27N 29°44' W 095°10'0 0.0
2018-Jun-03 08:09N 29°44' W 095°10'0 0.0
2018-Jun-03 06:42N 29°44' W 095°10'0 0.0
2018-Jun-03 06:24N 29°44' W 095°10'0 0.0
2018-Jun-03 06:00N 29°44' W 095°10'0 0.0
2018-Jun-03 05:27N 29°44' W 095°10'0 0.0
2018-Jun-03 05:00N 29°44' W 095°10'0 0.0
2018-Jun-03 04:21N 29°44' W 095°10'0 0.0
2018-Jun-03 03:54N 29°44' W 095°10'0 0.0
2018-Jun-03 03:27N 29°44' W 095°10'0 0.0
2018-Jun-02 05:53N 29°44' W 095°10'0 0.8
2018-Jun-02 05:30N 29°44' W 095°09'3 5.0
2018-Jun-02 05:00N 29°44' W 095°07'3 5.1
2018-Jun-02 04:30N 29°44' W 095°04'3 6.8
2018-Jun-02 04:00N 29°42' W 095°01'611.3
2018-Jun-02 03:30N 29°37' W 094°58'612.2
2018-Jun-02 03:00N 29°32' W 094°54'712.8
2018-Jun-02 02:29N 29°26' W 094°50'612.2
2018-Jun-02 01:59N 29°21' W 094°47'19 9.3
2018-Jun-01 23:58N 29°13' W 094°28'3013.5
2018-Jun-01 21:44N 28°56' W 093°59'314.5
2018-Jun-01 21:29N 28°53' W 093°56'  
Track history (hours):
 
Tides and Currents Weather Stations Pressure Air Temp Water Temp Dewpoint Dewpoint Depression Visibility Wind Speed Wind Dir Waves Ship Positions

Colin Jacob

Last reported at 2018-Jun-05 04:00 UTC. Time now 2018-Jun-21 09:56 UTC.
Position N 28°36' W 093°31'.
Warning: this ship's position is 16 days out of date.

Length 228 m; draft 12.1 m.

Type: Tanker. MMSI: 319767000.

Date/timePositionNaut miles runAvg speedWind from/ knotsBaromVisibWave heightAir tempDewpointWater temp
2018-Jun-05 04:00N 28°36' W 093°31'612.7
2018-Jun-05 03:31N 28°40' W 093°37'712.9
2018-Jun-05 02:56N 28°44' W 093°44'712.7
2018-Jun-05 02:25N 28°48' W 093°50'512.8
2018-Jun-05 01:59N 28°50' W 093°56'1313.6
2018-Jun-05 01:00N 28°53' W 094°11'714.0
2018-Jun-05 00:30N 28°55' W 094°19'910.3
2018-Jun-04 23:39N 29°01' W 094°25'213.3
2018-Jun-04 23:30N 29°03' W 094°25'712.5
2018-Jun-04 22:58N 29°09' W 094°28'613.2
2018-Jun-04 22:29N 29°14' W 094°33'611.2
2018-Jun-04 21:55N 29°19' W 094°38'613.1
2018-Jun-04 21:30N 29°21' W 094°44'510.9
2018-Jun-04 21:00N 29°24' W 094°49'610.9
2018-Jun-04 20:30N 29°29' W 094°51'510.4
2018-Jun-04 20:00N 29°33' W 094°55'510.3
2018-Jun-04 19:30N 29°37' W 094°58'4 8.0
2018-Jun-04 18:59N 29°41' W 094°59'10 1.8
2018-Jun-04 13:27N 29°44' W 095°10'0 0.0
2018-Jun-03 08:09N 29°44' W 095°10'0 0.0
2018-Jun-03 06:42N 29°44' W 095°10'0 0.0
2018-Jun-03 06:24N 29°44' W 095°10'0 0.0
2018-Jun-03 06:00N 29°44' W 095°10'0 0.0
2018-Jun-03 05:27N 29°44' W 095°10'0 0.0
2018-Jun-03 05:00N 29°44' W 095°10'0 0.0
2018-Jun-03 04:21N 29°44' W 095°10'0 0.0
2018-Jun-03 03:54N 29°44' W 095°10'0 0.0
2018-Jun-03 03:27N 29°44' W 095°10'0 0.0
2018-Jun-02 05:53N 29°44' W 095°10'0 0.8
2018-Jun-02 05:30N 29°44' W 095°09'3 5.0
2018-Jun-02 05:00N 29°44' W 095°07'3 5.1
2018-Jun-02 04:30N 29°44' W 095°04'3 6.8
2018-Jun-02 04:00N 29°42' W 095°01'611.3
2018-Jun-02 03:30N 29°37' W 094°58'612.2
2018-Jun-02 03:00N 29°32' W 094°54'712.8
2018-Jun-02 02:29N 29°26' W 094°50'612.2
2018-Jun-02 01:59N 29°21' W 094°47'19 9.3
2018-Jun-01 23:58N 29°13' W 094°28'3013.5
2018-Jun-01 21:44N 28°56' W 093°59'314.5
2018-Jun-01 21:29N 28°53' W 093°56'  

Dump ship's entire track history